sensor_id;sensor_type;location;lat;lon;timestamp;temperature;humidity
40696;DHT22;40425;51.102;17.208;2023-04-24T00:01:30;12.90;99.90
40696;DHT22;40425;51.102;17.208;2023-04-24T00:06:31;12.90;99.90
40696;DHT22;40425;51.102;17.208;2023-04-24T00:11:37;12.90;99.90
40696;DHT22;40425;51.102;17.208;2023-04-24T00:16:38;13.00;99.90
40696;DHT22;40425;51.102;17.208;2023-04-24T00:21:39;12.90;99.90
40696;DHT22;40425;51.102;17.208;2023-04-24T00:26:41;13.10;99.90
40696;DHT22;40425;51.102;17.208;2023-04-24T00:31:42;13.00;99.90
40696;DHT22;40425;51.102;17.208;2023-04-24T00:36:43;13.10;99.90
40696;DHT22;40425;51.102;17.208;2023-04-24T00:41:43;13.10;99.90
40696;DHT22;40425;51.102;17.208;2023-04-24T00:46:46;13.20;99.90
40696;DHT22;40425;51.102;17.208;2023-04-24T00:51:52;13.20;99.90
40696;DHT22;40425;51.102;17.208;2023-04-24T00:56:54;13.10;99.90
40696;DHT22;40425;51.102;17.208;2023-04-24T01:01:56;13.00;99.90
40696;DHT22;40425;51.102;17.208;2023-04-24T01:06:57;13.00;99.90
40696;DHT22;40425;51.102;17.208;2023-04-24T01:11:58;13.00;99.90
40696;DHT22;40425;51.102;17.208;2023-04-24T01:16:59;13.00;99.90
40696;DHT22;40425;51.102;17.208;2023-04-24T01:22:02;13.00;99.90
40696;DHT22;40425;51.102;17.208;2023-04-24T01:27:04;13.10;99.90
40696;DHT22;40425;51.102;17.208;2023-04-24T01:32:05;13.10;99.90
40696;DHT22;40425;51.102;17.208;2023-04-24T01:37:06;13.10;99.90
40696;DHT22;40425;51.102;17.208;2023-04-24T01:42:07;13.00;99.90
40696;DHT22;40425;51.102;17.208;2023-04-24T01:47:08;13.00;99.90
40696;DHT22;40425;51.102;17.208;2023-04-24T01:52:09;13.00;99.90
40696;DHT22;40425;51.102;17.208;2023-04-24T01:57:10;13.00;99.90
40696;DHT22;40425;51.102;17.208;2023-04-24T02:02:11;13.10;99.90
40696;DHT22;40425;51.102;17.208;2023-04-24T02:07:12;13.00;99.90
40696;DHT22;40425;51.102;17.208;2023-04-24T02:12:13;13.00;99.90
40696;DHT22;40425;51.102;17.208;2023-04-24T02:17:14;13.00;99.90
40696;DHT22;40425;51.102;17.208;2023-04-24T02:22:16;13.10;99.90
40696;DHT22;40425;51.102;17.208;2023-04-24T02:27:17;13.10;99.90
40696;DHT22;40425;51.102;17.208;2023-04-24T02:32:18;13.10;99.90
40696;DHT22;40425;51.102;17.208;2023-04-24T02:37:19;13.10;99.90
40696;DHT22;40425;51.102;17.208;2023-04-24T02:42:20;13.20;99.90
40696;DHT22;40425;51.102;17.208;2023-04-24T02:47:21;13.20;99.90
40696;DHT22;40425;51.102;17.208;2023-04-24T02:52:22;13.20;99.90
40696;DHT22;40425;51.102;17.208;2023-04-24T02:57:22;13.10;99.90
40696;DHT22;40425;51.102;17.208;2023-04-24T03:02:23;13.00;99.90
40696;DHT22;40425;51.102;17.208;2023-04-24T03:07:24;12.90;99.90
40696;DHT22;40425;51.102;17.208;2023-04-24T03:12:25;12.90;99.90
40696;DHT22;40425;51.102;17.208;2023-04-24T03:17:26;13.00;99.90
40696;DHT22;40425;51.102;17.208;2023-04-24T03:22:27;13.00;99.90
40696;DHT22;40425;51.102;17.208;2023-04-24T03:27:28;13.00;99.90
40696;DHT22;40425;51.102;17.208;2023-04-24T03:32:29;13.00;99.90
40696;DHT22;40425;51.102;17.208;2023-04-24T03:37:32;13.10;99.90
40696;DHT22;40425;51.102;17.208;2023-04-24T03:42:33;13.00;99.90
40696;DHT22;40425;51.102;17.208;2023-04-24T03:47:34;13.10;99.90
40696;DHT22;40425;51.102;17.208;2023-04-24T03:52:35;13.10;99.90
40696;DHT22;40425;51.102;17.208;2023-04-24T03:57:36;13.20;99.90
40696;DHT22;40425;51.102;17.208;2023-04-24T04:02:36;13.20;99.90
40696;DHT22;40425;51.102;17.208;2023-04-24T04:07:37;13.30;99.90
40696;DHT22;40425;51.102;17.208;2023-04-24T04:12:38;13.30;99.90
40696;DHT22;40425;51.102;17.208;2023-04-24T04:17:39;13.20;99.90
40696;DHT22;40425;51.102;17.208;2023-04-24T04:22:40;13.20;99.90
40696;DHT22;40425;51.102;17.208;2023-04-24T04:27:41;13.20;99.90
40696;DHT22;40425;51.102;17.208;2023-04-24T04:32:42;13.30;99.90
40696;DHT22;40425;51.102;17.208;2023-04-24T04:37:43;13.40;99.90
40696;DHT22;40425;51.102;17.208;2023-04-24T04:42:44;13.40;99.90
40696;DHT22;40425;51.102;17.208;2023-04-24T04:47:46;13.50;99.90
40696;DHT22;40425;51.102;17.208;2023-04-24T04:52:47;13.50;99.90
40696;DHT22;40425;51.102;17.208;2023-04-24T04:57:48;13.50;99.90
40696;DHT22;40425;51.102;17.208;2023-04-24T05:02:49;13.70;99.90
40696;DHT22;40425;51.102;17.208;2023-04-24T05:07:50;13.80;99.90
40696;DHT22;40425;51.102;17.208;2023-04-24T05:12:51;13.80;99.90
40696;DHT22;40425;51.102;17.208;2023-04-24T05:17:52;13.80;99.90
40696;DHT22;40425;51.102;17.208;2023-04-24T05:22:53;13.70;99.90
40696;DHT22;40425;51.102;17.208;2023-04-24T05:27:54;13.80;99.90
40696;DHT22;40425;51.102;17.208;2023-04-24T05:32:55;14.00;99.90
40696;DHT22;40425;51.102;17.208;2023-04-24T05:37:55;14.30;99.90
40696;DHT22;40425;51.102;17.208;2023-04-24T05:42:56;14.50;99.90
40696;DHT22;40425;51.102;17.208;2023-04-24T05:47:57;14.70;99.90
40696;DHT22;40425;51.102;17.208;2023-04-24T05:52:58;14.70;99.90
40696;DHT22;40425;51.102;17.208;2023-04-24T05:57:59;14.70;99.90
40696;DHT22;40425;51.102;17.208;2023-04-24T06:03:00;14.80;99.90
40696;DHT22;40425;51.102;17.208;2023-04-24T06:08:01;15.00;99.90
40696;DHT22;40425;51.102;17.208;2023-04-24T06:13:02;15.10;99.90
40696;DHT22;40425;51.102;17.208;2023-04-24T06:18:03;15.30;99.90
40696;DHT22;40425;51.102;17.208;2023-04-24T06:23:04;15.60;99.90
40696;DHT22;40425;51.102;17.208;2023-04-24T06:28:05;15.70;99.90
40696;DHT22;40425;51.102;17.208;2023-04-24T06:33:06;15.80;99.90
40696;DHT22;40425;51.102;17.208;2023-04-24T06:38:07;15.90;99.90
40696;DHT22;40425;51.102;17.208;2023-04-24T06:57:19;16.30;99.90
40696;DHT22;40425;51.102;17.208;2023-04-24T07:02:21;16.60;99.90
40696;DHT22;40425;51.102;17.208;2023-04-24T07:07:22;16.80;99.90
40696;DHT22;40425;51.102;17.208;2023-04-24T07:12:24;16.80;99.90
40696;DHT22;40425;51.102;17.208;2023-04-24T07:17:25;16.90;99.90
40696;DHT22;40425;51.102;17.208;2023-04-24T07:22:26;17.00;99.90
40696;DHT22;40425;51.102;17.208;2023-04-24T07:27:27;17.00;99.90
40696;DHT22;40425;51.102;17.208;2023-04-24T07:32:28;17.20;99.90
40696;DHT22;40425;51.102;17.208;2023-04-24T07:37:29;17.40;99.90
40696;DHT22;40425;51.102;17.208;2023-04-24T07:42:30;17.70;99.50
40696;DHT22;40425;51.102;17.208;2023-04-24T07:47:32;17.90;98.10
40696;DHT22;40425;51.102;17.208;2023-04-24T07:52:33;18.10;97.40
40696;DHT22;40425;51.102;17.208;2023-04-24T07:57:34;18.10;96.20
40696;DHT22;40425;51.102;17.208;2023-04-24T08:02:34;17.80;96.30
40696;DHT22;40425;51.102;17.208;2023-04-24T08:07:35;17.70;97.10
40696;DHT22;40425;51.102;17.208;2023-04-24T08:12:37;17.70;97.30
40696;DHT22;40425;51.102;17.208;2023-04-24T08:17:38;17.60;97.20
40696;DHT22;40425;51.102;17.208;2023-04-24T08:22:40;17.40;98.30
40696;DHT22;40425;51.102;17.208;2023-04-24T08:27:41;17.20;99.90
40696;DHT22;40425;51.102;17.208;2023-04-24T08:32:42;17.10;99.90
40696;DHT22;40425;51.102;17.208;2023-04-24T08:51:21;16.90;99.90
40696;DHT22;40425;51.102;17.208;2023-04-24T08:56:23;18.60;99.90
40696;DHT22;40425;51.102;17.208;2023-04-24T09:01:25;18.90;99.90
40696;DHT22;40425;51.102;17.208;2023-04-24T09:06:27;19.00;99.90
40696;DHT22;40425;51.102;17.208;2023-04-24T09:11:30;19.10;99.90
40696;DHT22;40425;51.102;17.208;2023-04-24T09:16:31;19.30;99.90
40696;DHT22;40425;51.102;17.208;2023-04-24T09:21:34;19.30;99.90
40696;DHT22;40425;51.102;17.208;2023-04-24T09:26:36;19.20;99.90
40696;DHT22;40425;51.102;17.208;2023-04-24T09:31:37;19.30;98.20
40696;DHT22;40425;51.102;17.208;2023-04-24T09:36:40;19.40;99.10
40696;DHT22;40425;51.102;17.208;2023-04-24T09:41:47;19.40;97.80
40696;DHT22;40425;51.102;17.208;2023-04-24T09:46:54;19.20;96.30
40696;DHT22;40425;51.102;17.208;2023-04-24T09:52:06;19.10;95.50
40696;DHT22;40425;51.102;17.208;2023-04-24T09:57:08;19.00;97.00
40696;DHT22;40425;51.102;17.208;2023-04-24T10:02:30;19.10;97.60
40696;DHT22;40425;51.102;17.208;2023-04-24T10:07:33;19.20;97.30
40696;DHT22;40425;51.102;17.208;2023-04-24T10:12:34;19.50;96.80
40696;DHT22;40425;51.102;17.208;2023-04-24T10:17:35;19.90;95.70
40696;DHT22;40425;51.102;17.208;2023-04-24T10:22:37;20.00;94.20
40696;DHT22;40425;51.102;17.208;2023-04-24T10:27:39;20.00;94.80
40696;DHT22;40425;51.102;17.208;2023-04-24T10:32:40;20.30;94.70
40696;DHT22;40425;51.102;17.208;2023-04-24T10:37:48;20.50;92.90
40696;DHT22;40425;51.102;17.208;2023-04-24T10:42:52;20.50;91.50
40696;DHT22;40425;51.102;17.208;2023-04-24T10:48:02;20.60;92.20
40696;DHT22;40425;51.102;17.208;2023-04-24T10:53:09;20.80;93.00
40696;DHT22;40425;51.102;17.208;2023-04-24T10:58:13;20.80;92.70
40696;DHT22;40425;51.102;17.208;2023-04-24T11:03:30;20.80;93.50
40696;DHT22;40425;51.102;17.208;2023-04-24T11:08:37;20.70;91.90
40696;DHT22;40425;51.102;17.208;2023-04-24T11:19:06;19.90;91.50
40696;DHT22;40425;51.102;17.208;2023-04-24T11:29:45;20.60;93.10
40696;DHT22;40425;51.102;17.208;2023-04-24T11:34:51;21.20;90.20
40696;DHT22;40425;51.102;17.208;2023-04-24T11:39:53;21.30;89.70
40696;DHT22;40425;51.102;17.208;2023-04-24T11:44:58;21.20;86.20
40696;DHT22;40425;51.102;17.208;2023-04-24T11:50:01;21.10;85.90
40696;DHT22;40425;51.102;17.208;2023-04-24T11:55:03;21.00;86.00
40696;DHT22;40425;51.102;17.208;2023-04-24T12:00:04;20.50;87.60
40696;DHT22;40425;51.102;17.208;2023-04-24T12:05:06;20.00;91.60
40696;DHT22;40425;51.102;17.208;2023-04-24T12:10:07;19.60;93.00
40696;DHT22;40425;51.102;17.208;2023-04-24T12:15:10;19.70;93.30
40696;DHT22;40425;51.102;17.208;2023-04-24T12:20:13;19.70;92.50
40696;DHT22;40425;51.102;17.208;2023-04-24T12:25:16;19.60;92.10
40696;DHT22;40425;51.102;17.208;2023-04-24T12:30:18;19.40;92.60
40696;DHT22;40425;51.102;17.208;2023-04-24T12:35:20;19.10;92.50
40696;DHT22;40425;51.102;17.208;2023-04-24T12:40:26;19.00;92.80
40696;DHT22;40425;51.102;17.208;2023-04-24T12:45:27;19.10;93.00
40696;DHT22;40425;51.102;17.208;2023-04-24T12:50:28;19.10;91.70
40696;DHT22;40425;51.102;17.208;2023-04-24T12:55:29;19.00;92.50
40696;DHT22;40425;51.102;17.208;2023-04-24T13:00:30;18.70;93.30
40696;DHT22;40425;51.102;17.208;2023-04-24T13:05:31;18.40;94.70
40696;DHT22;40425;51.102;17.208;2023-04-24T13:10:32;18.10;95.70
40696;DHT22;40425;51.102;17.208;2023-04-24T13:15:32;17.90;96.70
40696;DHT22;40425;51.102;17.208;2023-04-24T13:20:33;17.70;99.70
40696;DHT22;40425;51.102;17.208;2023-04-24T13:25:36;17.50;99.90
40696;DHT22;40425;51.102;17.208;2023-04-24T13:30:39;17.20;99.90
40696;DHT22;40425;51.102;17.208;2023-04-24T13:35:40;17.20;99.90
40696;DHT22;40425;51.102;17.208;2023-04-24T13:40:41;17.20;99.90
40696;DHT22;40425;51.102;17.208;2023-04-24T13:45:42;17.20;99.90
40696;DHT22;40425;51.102;17.208;2023-04-24T13:50:43;17.00;99.90
40696;DHT22;40425;51.102;17.208;2023-04-24T13:55:44;16.80;99.90
40696;DHT22;40425;51.102;17.208;2023-04-24T14:00:45;16.40;99.90
40696;DHT22;40425;51.102;17.208;2023-04-24T14:05:46;15.80;99.90
40696;DHT22;40425;51.102;17.208;2023-04-24T14:10:47;15.30;99.90
40696;DHT22;40425;51.102;17.208;2023-04-24T14:15:48;15.30;99.90
40696;DHT22;40425;51.102;17.208;2023-04-24T14:20:49;15.50;99.90
40696;DHT22;40425;51.102;17.208;2023-04-24T14:25:50;15.70;99.90
40696;DHT22;40425;51.102;17.208;2023-04-24T14:30:53;16.00;99.90
40696;DHT22;40425;51.102;17.208;2023-04-24T14:35:54;16.00;99.90
40696;DHT22;40425;51.102;17.208;2023-04-24T14:41:04;16.10;99.90
40696;DHT22;40425;51.102;17.208;2023-04-24T14:46:10;16.30;99.90
40696;DHT22;40425;51.102;17.208;2023-04-24T14:51:11;16.50;99.90
40696;DHT22;40425;51.102;17.208;2023-04-24T14:56:12;16.40;99.90
40696;DHT22;40425;51.102;17.208;2023-04-24T15:01:12;16.20;99.90
40696;DHT22;40425;51.102;17.208;2023-04-24T15:06:13;15.90;99.90
40696;DHT22;40425;51.102;17.208;2023-04-24T15:11:14;15.80;99.90
40696;DHT22;40425;51.102;17.208;2023-04-24T15:16:15;15.60;99.90
40696;DHT22;40425;51.102;17.208;2023-04-24T15:21:16;15.60;99.90
40696;DHT22;40425;51.102;17.208;2023-04-24T15:26:18;15.60;99.90
40696;DHT22;40425;51.102;17.208;2023-04-24T15:31:20;15.60;99.90
40696;DHT22;40425;51.102;17.208;2023-04-24T15:36:23;15.40;99.90
40696;DHT22;40425;51.102;17.208;2023-04-24T15:41:24;15.20;99.90
40696;DHT22;40425;51.102;17.208;2023-04-24T15:46:25;15.20;99.90
40696;DHT22;40425;51.102;17.208;2023-04-24T15:51:26;15.10;99.90
40696;DHT22;40425;51.102;17.208;2023-04-24T15:56:27;14.90;99.90
40696;DHT22;40425;51.102;17.208;2023-04-24T16:01:28;14.60;99.90
40696;DHT22;40425;51.102;17.208;2023-04-24T16:06:31;14.50;99.90
40696;DHT22;40425;51.102;17.208;2023-04-24T16:11:34;14.50;99.90
40696;DHT22;40425;51.102;17.208;2023-04-24T16:16:39;14.50;99.90
40696;DHT22;40425;51.102;17.208;2023-04-24T16:21:40;14.50;99.90
40696;DHT22;40425;51.102;17.208;2023-04-24T16:26:42;14.40;99.90
40696;DHT22;40425;51.102;17.208;2023-04-24T16:31:43;14.20;99.90
40696;DHT22;40425;51.102;17.208;2023-04-24T16:36:44;14.20;99.90
40696;DHT22;40425;51.102;17.208;2023-04-24T16:41:45;14.10;99.90
40696;DHT22;40425;51.102;17.208;2023-04-24T16:46:46;13.90;99.90
40696;DHT22;40425;51.102;17.208;2023-04-24T16:51:47;13.80;99.90
40696;DHT22;40425;51.102;17.208;2023-04-24T16:56:48;13.80;99.90
40696;DHT22;40425;51.102;17.208;2023-04-24T17:01:49;13.80;99.90
40696;DHT22;40425;51.102;17.208;2023-04-24T17:06:51;13.80;99.90
40696;DHT22;40425;51.102;17.208;2023-04-24T17:11:53;13.90;99.90
40696;DHT22;40425;51.102;17.208;2023-04-24T17:16:54;13.80;99.90
40696;DHT22;40425;51.102;17.208;2023-04-24T17:21:55;13.80;99.90
40696;DHT22;40425;51.102;17.208;2023-04-24T17:26:57;13.70;99.90
40696;DHT22;40425;51.102;17.208;2023-04-24T17:31:59;13.70;99.90
40696;DHT22;40425;51.102;17.208;2023-04-24T17:37:00;13.80;99.90
40696;DHT22;40425;51.102;17.208;2023-04-24T17:42:03;13.80;99.90
40696;DHT22;40425;51.102;17.208;2023-04-24T17:47:08;13.90;99.90
40696;DHT22;40425;51.102;17.208;2023-04-24T17:52:08;13.70;99.90
40696;DHT22;40425;51.102;17.208;2023-04-24T17:57:12;13.60;99.90
40696;DHT22;40425;51.102;17.208;2023-04-24T18:02:13;13.50;99.90
40696;DHT22;40425;51.102;17.208;2023-04-24T18:07:15;13.30;99.90
40696;DHT22;40425;51.102;17.208;2023-04-24T18:12:17;13.30;99.90
40696;DHT22;40425;51.102;17.208;2023-04-24T18:17:21;13.40;99.90
40696;DHT22;40425;51.102;17.208;2023-04-24T18:22:23;13.50;99.90
40696;DHT22;40425;51.102;17.208;2023-04-24T18:27:25;13.50;99.90
40696;DHT22;40425;51.102;17.208;2023-04-24T18:32:29;13.30;99.90
40696;DHT22;40425;51.102;17.208;2023-04-24T18:37:30;13.10;99.90
40696;DHT22;40425;51.102;17.208;2023-04-24T18:42:33;13.10;99.90
40696;DHT22;40425;51.102;17.208;2023-04-24T18:47:34;13.00;99.90
40696;DHT22;40425;51.102;17.208;2023-04-24T18:52:36;13.00;99.90
40696;DHT22;40425;51.102;17.208;2023-04-24T18:57:37;13.00;99.90
40696;DHT22;40425;51.102;17.208;2023-04-24T19:02:38;12.90;99.90
40696;DHT22;40425;51.102;17.208;2023-04-24T19:07:39;13.00;99.90
40696;DHT22;40425;51.102;17.208;2023-04-24T19:12:43;13.10;99.90
40696;DHT22;40425;51.102;17.208;2023-04-24T19:17:45;13.20;99.90
40696;DHT22;40425;51.102;17.208;2023-04-24T19:22:51;13.20;99.90
40696;DHT22;40425;51.102;17.208;2023-04-24T19:27:54;13.10;99.90
40696;DHT22;40425;51.102;17.208;2023-04-24T19:32:55;13.10;99.90
40696;DHT22;40425;51.102;17.208;2023-04-24T19:37:56;13.10;99.90
40696;DHT22;40425;51.102;17.208;2023-04-24T19:42:57;13.10;99.90
40696;DHT22;40425;51.102;17.208;2023-04-24T19:47:58;13.00;99.90
40696;DHT22;40425;51.102;17.208;2023-04-24T19:52:59;12.90;99.90
40696;DHT22;40425;51.102;17.208;2023-04-24T19:58:00;12.80;99.90
40696;DHT22;40425;51.102;17.208;2023-04-24T20:03:01;12.80;99.90
40696;DHT22;40425;51.102;17.208;2023-04-24T20:08:02;12.70;99.90
40696;DHT22;40425;51.102;17.208;2023-04-24T20:13:03;12.70;99.90
40696;DHT22;40425;51.102;17.208;2023-04-24T20:18:04;12.70;99.90
40696;DHT22;40425;51.102;17.208;2023-04-24T20:23:05;12.60;99.90
40696;DHT22;40425;51.102;17.208;2023-04-24T20:28:06;12.60;99.90
40696;DHT22;40425;51.102;17.208;2023-04-24T20:33:07;12.40;99.90
40696;DHT22;40425;51.102;17.208;2023-04-24T20:38:08;12.40;99.90
40696;DHT22;40425;51.102;17.208;2023-04-24T20:43:11;12.40;99.90
40696;DHT22;40425;51.102;17.208;2023-04-24T20:48:14;12.30;99.90
40696;DHT22;40425;51.102;17.208;2023-04-24T20:53:15;12.20;99.90
40696;DHT22;40425;51.102;17.208;2023-04-24T20:58:16;12.10;99.90
40696;DHT22;40425;51.102;17.208;2023-04-24T21:03:23;12.00;99.90
40696;DHT22;40425;51.102;17.208;2023-04-24T21:08:25;12.00;99.90
40696;DHT22;40425;51.102;17.208;2023-04-24T21:13:25;12.00;99.90
40696;DHT22;40425;51.102;17.208;2023-04-24T21:18:26;12.00;99.90
40696;DHT22;40425;51.102;17.208;2023-04-24T21:23:28;12.00;99.90
40696;DHT22;40425;51.102;17.208;2023-04-24T21:28:29;12.00;99.90
40696;DHT22;40425;51.102;17.208;2023-04-24T21:33:30;12.00;99.90
40696;DHT22;40425;51.102;17.208;2023-04-24T21:38:31;12.00;99.90
40696;DHT22;40425;51.102;17.208;2023-04-24T21:43:32;11.90;99.90
40696;DHT22;40425;51.102;17.208;2023-04-24T21:48:33;11.90;99.90
40696;DHT22;40425;51.102;17.208;2023-04-24T21:53:34;11.90;99.90
40696;DHT22;40425;51.102;17.208;2023-04-24T21:58:35;11.80;99.90
40696;DHT22;40425;51.102;17.208;2023-04-24T22:03:36;11.80;99.90
40696;DHT22;40425;51.102;17.208;2023-04-24T22:08:37;11.70;99.90
40696;DHT22;40425;51.102;17.208;2023-04-24T22:13:38;11.60;99.90
40696;DHT22;40425;51.102;17.208;2023-04-24T22:18:39;11.60;99.90
40696;DHT22;40425;51.102;17.208;2023-04-24T22:23:40;11.60;99.90
40696;DHT22;40425;51.102;17.208;2023-04-24T22:28:41;11.50;99.90
40696;DHT22;40425;51.102;17.208;2023-04-24T22:33:46;11.40;99.90
40696;DHT22;40425;51.102;17.208;2023-04-24T22:38:47;11.30;99.90
40696;DHT22;40425;51.102;17.208;2023-04-24T22:43:48;11.30;99.90
40696;DHT22;40425;51.102;17.208;2023-04-24T22:48:49;11.20;99.90
40696;DHT22;40425;51.102;17.208;2023-04-24T22:53:50;11.10;99.90
40696;DHT22;40425;51.102;17.208;2023-04-24T22:58:51;11.00;99.90
40696;DHT22;40425;51.102;17.208;2023-04-24T23:03:52;10.90;99.90
40696;DHT22;40425;51.102;17.208;2023-04-24T23:08:53;10.80;99.90
40696;DHT22;40425;51.102;17.208;2023-04-24T23:13:54;10.80;99.90
40696;DHT22;40425;51.102;17.208;2023-04-24T23:18:56;10.70;99.90
40696;DHT22;40425;51.102;17.208;2023-04-24T23:23:57;10.60;99.90
40696;DHT22;40425;51.102;17.208;2023-04-24T23:28:57;10.60;99.90
40696;DHT22;40425;51.102;17.208;2023-04-24T23:33:58;10.50;99.90
40696;DHT22;40425;51.102;17.208;2023-04-24T23:39:01;10.40;99.90
40696;DHT22;40425;51.102;17.208;2023-04-24T23:44:05;10.30;99.90
40696;DHT22;40425;51.102;17.208;2023-04-24T23:49:06;10.30;99.90
40696;DHT22;40425;51.102;17.208;2023-04-24T23:54:07;10.20;99.90
40696;DHT22;40425;51.102;17.208;2023-04-24T23:59:08;10.20;99.90
